Time;durP1;ratioP1;P1;durP2;ratioP2;P2;SDS_P1;SDS_P2;PMS_P1;PMS_P2;Temp;Humidity;BMP_temperature;BMP_pressure;BME280_temperature;BME280_humidity;BME280_pressure;Samples;Min_cycle;Max_cycle;Signal;HPM_P1;HPM_P2
2022/06/08 00:01:06;;;;;;;0.80;0.80;;;19.50;59.30;;;;;;5028698;28;43760;-62
2022/06/08 00:03:46;;;;;;;0.77;0.77;;;19.40;59.30;;;;;;5029341;28;43451;-60
2022/06/08 00:06:15;;;;;;;1.17;1.00;;;19.50;59.30;;;;;;5037356;28;43472;-61
2022/06/08 00:08:43;;;;;;;1.30;0.95;;;19.40;59.30;;;;;;5041291;28;43455;-61
2022/06/08 00:11:11;;;;;;;1.13;1.02;;;19.40;59.30;;;;;;5026942;28;43809;-61
2022/06/08 00:13:40;;;;;;;1.00;0.90;;;19.40;59.30;;;;;;5030710;28;43851;-61
2022/06/08 00:16:09;;;;;;;1.00;1.00;;;19.40;59.30;;;;;;5040641;28;43501;-61
2022/06/08 00:18:39;;;;;;;1.00;0.90;;;19.40;59.30;;;;;;5042929;28;43586;-61
2022/06/08 00:21:08;;;;;;;1.05;0.95;;;19.40;59.30;;;;;;5028555;28;43838;-61
2022/06/08 00:23:36;;;;;;;1.10;1.00;;;19.40;59.30;;;;;;5033345;28;43539;-62
2022/06/08 00:26:05;;;;;;;2.28;1.00;;;19.40;59.30;;;;;;5040415;28;43519;-61
2022/06/08 00:28:33;;;;;;;1.75;0.90;;;19.40;59.30;;;;;;5030042;28;43467;-61
2022/06/08 00:31:02;;;;;;;1.25;1.00;;;19.40;59.30;;;;;;5029240;28;44716;-61
2022/06/08 00:33:30;;;;;;;0.90;0.90;;;19.40;59.30;;;;;;5035225;28;43507;-61
2022/06/08 00:35:59;;;;;;;1.35;1.25;;;19.40;59.30;;;;;;5042023;28;43468;-61
2022/06/08 00:38:27;;;;;;;1.10;1.00;;;19.30;59.30;;;;;;5062165;28;43477;-61
2022/06/08 00:41:05;;;;;;;0.98;0.93;;;19.30;59.30;;;;;;5061243;28;44383;-61
2022/06/08 00:43:35;;;;;;;1.20;1.08;;;19.30;59.30;;;;;;5070778;28;43898;-61
2022/06/08 00:46:05;;;;;;;0.80;0.80;;;19.30;59.30;;;;;;5041946;28;43434;-61
2022/06/08 00:48:39;;;;;;;1.27;1.17;;;19.30;59.30;;;;;;5027759;28;43444;-61
2022/06/08 00:51:07;;;;;;;1.25;0.90;;;19.30;59.30;;;;;;5030674;28;43895;-61
2022/06/08 00:53:57;;;;;;;1.15;1.10;;;19.30;59.30;;;;;;5039841;28;43797;-61
2022/06/08 00:56:35;;;;;;;1.08;0.98;;;19.30;59.30;;;;;;5039643;28;43542;-62
2022/06/08 00:59:06;;;;;;;0.88;0.88;;;19.30;59.30;;;;;;5035013;28;43554;-61
2022/06/08 01:01:33;;;;;;;;;;;19.30;59.40;;;;;;5037693;28;44051;-61
2022/06/08 01:04:07;;;;;;;0.82;0.82;;;19.30;59.30;;;;;;5038262;28;43692;-62
2022/06/08 01:06:36;;;;;;;1.00;0.90;;;19.20;59.40;;;;;;5025322;28;43415;-61
2022/06/08 01:09:05;;;;;;;1.00;0.70;;;19.20;59.40;;;;;;5031748;28;43438;-62
2022/06/08 01:11:43;;;;;;;1.27;1.10;;;19.20;59.40;;;;;;5038555;28;44687;-62
2022/06/08 01:14:16;;;;;;;1.35;1.00;;;19.20;59.30;;;;;;5037055;28;43397;-62
2022/06/08 01:17:01;;;;;;;1.10;1.00;;;19.20;59.30;;;;;;5055845;28;43971;-62
2022/06/08 01:19:33;;;;;;;1.00;0.90;;;19.20;59.30;;;;;;5035703;28;43566;-61
2022/06/08 01:22:02;;;;;;;1.10;1.00;;;19.20;59.40;;;;;;5038019;28;44032;-62
2022/06/08 01:24:47;;;;;;;1.45;1.08;;;19.20;59.40;;;;;;5061329;28;43416;-61
2022/06/08 01:27:56;;;;;;;0.77;0.77;;;19.20;59.40;;;;;;5036599;28;43460;-61
2022/06/08 01:30:31;;;;;;;1.05;0.90;;;19.20;59.40;;;;;;5043443;28;43567;-61
2022/06/08 01:33:42;;;;;;;1.08;0.95;;;19.20;59.40;;;;;;5033724;28;44114;-62
2022/06/08 01:36:25;;;;;;;1.30;1.20;;;19.10;59.30;;;;;;5002798;28;43964;-61
2022/06/08 01:39:30;;;;;;;1.55;1.27;;;19.10;59.40;;;;;;5015015;28;43458;-62
2022/06/08 01:42:24;;;;;;;1.08;0.98;;;19.10;59.40;;;;;;5010438;28;43559;-61
2022/06/08 01:45:30;;;;;;;1.10;1.00;;;19.10;59.40;;;;;;5034862;28;43825;-62
2022/06/08 01:48:24;;;;;;;0.90;0.90;;;19.10;59.40;;;;;;5039006;28;43491;-61
2022/06/08 01:50:52;;;;;;;1.02;0.90;;;19.10;59.40;;;;;;5043881;28;43466;-61
2022/06/08 01:53:45;;;;;;;0.70;0.70;;;19.10;59.40;;;;;;5031867;28;43534;-62
2022/06/08 01:56:31;;;;;;;0.95;0.95;;;19.10;59.40;;;;;;5051921;28;44827;-62
2022/06/08 01:59:34;;;;;;;1.48;0.90;;;19.10;59.50;;;;;;5038250;28;43996;-61
2022/06/08 02:02:20;;;;;;;0.90;0.90;;;19.10;59.50;;;;;;5027721;28;44018;-62
2022/06/08 02:05:13;;;;;;;1.30;0.90;;;19.10;59.50;;;;;;5048618;28;43527;-61
2022/06/08 02:07:46;;;;;;;1.33;0.93;;;19.10;59.40;;;;;;5039416;28;44167;-62
2022/06/08 02:10:27;;;;;;;1.35;0.90;;;19.00;59.50;;;;;;5040650;28;43473;-62
2022/06/08 02:13:03;;;;;;;0.75;0.75;;;19.00;59.40;;;;;;5064501;28;43431;-62
2022/06/08 02:15:40;;;;;;;0.93;0.90;;;19.00;59.40;;;;;;5036845;28;43531;-61
2022/06/08 02:18:18;;;;;;;0.88;0.85;;;19.00;59.40;;;;;;5075992;28;44661;-61
2022/06/08 02:21:16;;;;;;;0.90;0.90;;;19.00;59.40;;;;;;5031489;28;43538;-62
2022/06/08 02:24:05;;;;;;;0.75;0.75;;;19.00;59.40;;;;;;5018972;28;43479;-61
2022/06/08 02:26:40;;;;;;;0.95;0.80;;;19.00;59.40;;;;;;5039739;28;43491;-62
2022/06/08 02:29:13;;;;;;;1.38;0.90;;;19.00;59.40;;;;;;5055028;28;44937;-62
2022/06/08 02:31:46;;;;;;;1.00;0.90;;;19.00;59.40;;;;;;5033881;28;43550;-62
2022/06/08 02:34:31;;;;;;;0.98;0.98;;;19.00;59.50;;;;;;5043404;28;43402;-62
2022/06/08 02:37:23;;;;;;;0.80;0.80;;;19.00;59.50;;;;;;5039720;28;43417;-61
2022/06/08 02:39:58;;;;;;;1.50;1.00;;;18.90;59.40;;;;;;5062530;28;44040;-62
2022/06/08 02:42:32;;;;;;;1.20;1.15;;;18.90;59.50;;;;;;5040653;28;44029;-61
2022/06/08 02:45:15;;;;;;;0.98;0.88;;;18.90;59.50;;;;;;5040665;28;43474;-62
2022/06/08 02:47:46;;;;;;;0.75;0.75;;;18.90;59.50;;;;;;5040642;28;43451;-62
2022/06/08 02:50:21;;;;;;;1.65;0.80;;;18.90;59.50;;;;;;5041799;28;44034;-62
2022/06/08 02:52:51;;;;;;;0.80;0.80;;;18.90;59.40;;;;;;5035626;28;43481;-61
2022/06/08 02:55:28;;;;;;;0.98;0.93;;;18.90;59.50;;;;;;5043499;28;43450;-61
2022/06/08 02:58:05;;;;;;;0.70;0.70;;;18.90;59.40;;;;;;5043006;28;43555;-62
2022/06/08 03:00:36;;;;;;;0.75;0.75;;;18.90;59.50;;;;;;5030499;28;44225;-62
2022/06/08 03:03:09;;;;;;;0.80;0.80;;;18.90;59.40;;;;;;5064273;28;44110;-62
2022/06/08 03:05:48;;;;;;;1.15;0.90;;;18.90;59.40;;;;;;5041208;28;43413;-61
2022/06/08 03:08:26;;;;;;;0.63;0.60;;;18.90;59.40;;;;;;5030663;28;44097;-62
2022/06/08 03:10:54;;;;;;;0.70;0.70;;;18.90;59.40;;;;;;5036349;28;43738;-62
2022/06/08 03:13:27;;;;;;;0.80;0.80;;;18.90;59.40;;;;;;5041624;28;43438;-62
2022/06/08 03:16:02;;;;;;;0.82;0.82;;;18.90;59.40;;;;;;5039511;28;43477;-62
2022/06/08 03:18:30;;;;;;;1.90;0.80;;;18.80;59.50;;;;;;5034455;28;43669;-62
2022/06/08 03:21:01;;;;;;;0.93;0.93;;;18.80;59.40;;;;;;5059442;28;43930;-62
2022/06/08 03:23:32;;;;;;;1.05;0.95;;;18.80;59.40;;;;;;5042977;28;43931;-62
2022/06/08 03:25:59;;;;;;;1.08;0.98;;;18.80;59.40;;;;;;5067086;28;43496;-61
2022/06/08 03:28:28;;;;;;;1.17;1.00;;;18.80;59.40;;;;;;5035911;28;43395;-62
2022/06/08 03:30:57;;;;;;;0.95;0.85;;;18.80;59.40;;;;;;5042358;28;45018;-62
2022/06/08 03:33:25;;;;;;;0.85;0.80;;;18.80;59.40;;;;;;5042247;28;43608;-61
2022/06/08 03:35:52;;;;;;;0.80;0.80;;;18.80;59.40;;;;;;5029394;28;43548;-62
2022/06/08 03:38:23;;;;;;;0.80;0.80;;;18.80;59.40;;;;;;5038834;28;43511;-61
2022/06/08 03:40:52;;;;;;;0.80;0.80;;;18.70;59.30;;;;;;5041962;28;44799;-62
2022/06/08 03:43:20;;;;;;;0.60;0.60;;;18.80;59.40;;;;;;5030629;28;43769;-61
2022/06/08 03:45:51;;;;;;;0.82;0.82;;;18.70;59.30;;;;;;5024488;28;43396;-61
2022/06/08 03:48:20;;;;;;;1.08;0.98;;;18.80;59.40;;;;;;5030006;28;43563;-62
2022/06/08 03:50:54;;;;;;;0.90;0.90;;;18.70;59.40;;;;;;5043011;28;43800;-62
2022/06/08 03:53:27;;;;;;;0.80;0.80;;;18.70;59.40;;;;;;5027684;28;43548;-61
2022/06/08 03:55:57;;;;;;;0.85;0.85;;;18.80;59.40;;;;;;5032443;28;43511;-61
2022/06/08 03:58:25;;;;;;;0.98;0.90;;;18.80;60.00;;;;;;5040284;28;44055;-62
2022/06/08 04:00:54;;;;;;;0.52;0.52;;;18.70;59.30;;;;;;5040313;28;44368;-62
2022/06/08 04:03:22;;;;;;;0.75;0.75;;;18.70;59.30;;;;;;5027164;28;43360;-62
2022/06/08 04:05:50;;;;;;;0.98;0.98;;;18.70;59.30;;;;;;5066831;28;43495;-62
2022/06/08 04:08:23;;;;;;;0.75;0.75;;;18.70;59.40;;;;;;5042488;28;43404;-62
2022/06/08 04:10:54;;;;;;;0.80;0.80;;;18.70;59.40;;;;;;5040512;28;44768;-62
2022/06/08 04:13:22;;;;;;;0.90;0.90;;;18.70;59.40;;;;;;5060730;28;43493;-61
2022/06/08 04:15:54;;;;;;;0.80;0.80;;;18.70;59.40;;;;;;5070999;28;43431;-62
2022/06/08 04:18:27;;;;;;;0.80;0.80;;;18.70;59.40;;;;;;5036355;28;43639;-61
2022/06/08 04:21:02;;;;;;;0.70;0.70;;;18.70;59.40;;;;;;5038161;28;45297;-61
2022/06/08 04:23:38;;;;;;;0.88;0.88;;;18.70;59.40;;;;;;5040780;28;43969;-62
2022/06/08 04:26:06;;;;;;;1.02;0.93;;;18.70;59.40;;;;;;5021267;28;43446;-61
2022/06/08 04:28:36;;;;;;;1.15;0.80;;;18.70;59.40;;;;;;5040779;28;43655;-62
2022/06/08 04:31:09;;;;;;;1.10;0.70;;;18.60;59.40;;;;;;5026883;28;43980;-62
2022/06/08 04:33:40;;;;;;;1.27;1.17;;;18.70;59.50;;;;;;5035174;28;43465;-62
2022/06/08 04:36:14;;;;;;;1.00;0.90;;;18.70;59.50;;;;;;5041660;28;43524;-62
2022/06/08 04:38:43;;;;;;;1.45;0.73;;;18.70;59.40;;;;;;5059029;28;43749;-62
2022/06/08 04:41:11;;;;;;;1.02;1.00;;;18.70;59.50;;;;;;5044720;28;44075;-62
2022/06/08 04:43:40;;;;;;;1.02;0.93;;;18.70;59.50;;;;;;5037469;28;43817;-62
2022/06/08 04:46:15;;;;;;;1.05;1.05;;;18.70;59.40;;;;;;5073709;28;43565;-62
2022/06/08 04:48:47;;;;;;;0.95;0.80;;;18.70;59.40;;;;;;5059605;28;43465;-61
2022/06/08 04:51:15;;;;;;;0.73;0.70;;;18.70;59.50;;;;;;5065005;28;44687;-62
2022/06/08 04:53:47;;;;;;;0.70;0.70;;;18.60;59.40;;;;;;5041618;28;43685;-62
2022/06/08 04:56:16;;;;;;;;;;;18.60;59.40;;;;;;5042190;28;43405;-62
2022/06/08 04:58:44;;;;;;;0.80;0.80;;;18.60;59.50;;;;;;5042195;28;43589;-62
2022/06/08 05:01:12;;;;;;;0.80;0.80;;;18.60;59.50;;;;;;5069746;28;43905;-61
2022/06/08 05:03:40;;;;;;;0.90;0.90;;;18.60;59.50;;;;;;5045069;28;43484;-62
2022/06/08 05:06:07;;;;;;;0.88;0.88;;;18.60;59.50;;;;;;5041667;28;43445;-62
2022/06/08 05:08:36;;;;;;;1.10;1.00;;;18.60;59.50;;;;;;5047227;28;43598;-61
2022/06/08 05:11:05;;;;;;;1.00;1.00;;;18.60;59.50;;;;;;5072412;28;44055;-61
2022/06/08 05:13:36;;;;;;;0.90;0.90;;;18.60;59.50;;;;;;5044194;28;44128;-61
2022/06/08 05:16:07;;;;;;;0.90;0.85;;;18.60;59.40;;;;;;5030829;28;43365;-62
2022/06/08 05:18:39;;;;;;;0.63;0.63;;;18.60;59.50;;;;;;5037852;28;43506;-62
2022/06/08 05:21:13;;;;;;;1.58;1.02;;;18.60;59.50;;;;;;5044777;28;43836;-62
2022/06/08 05:23:43;;;;;;;0.73;0.73;;;18.60;59.50;;;;;;5042675;28;43479;-62
2022/06/08 05:26:18;;;;;;;1.00;1.00;;;18.60;59.50;;;;;;5062278;28;43484;-61
2022/06/08 05:28:46;;;;;;;1.10;1.10;;;18.60;59.60;;;;;;5053467;28;43601;-62
2022/06/08 05:31:16;;;;;;;1.00;1.00;;;18.60;59.60;;;;;;5044437;28;43789;-62
2022/06/08 05:33:47;;;;;;;;;;;18.60;59.70;;;;;;5040366;28;43470;-62
2022/06/08 05:36:18;;;;;;;1.20;1.10;;;18.60;59.70;;;;;;5030303;28;43527;-61
2022/06/08 05:38:48;;;;;;;1.10;1.10;;;18.60;59.80;;;;;;5073101;28;43442;-62
2022/06/08 05:41:18;;;;;;;1.08;1.00;;;18.60;59.70;;;;;;5043346;28;44714;-61
2022/06/08 05:43:46;;;;;;;1.35;1.00;;;18.60;59.80;;;;;;5061174;28;43488;-62
2022/06/08 05:46:16;;;;;;;1.00;1.00;;;18.60;59.70;;;;;;5033511;28;43484;-61
2022/06/08 05:48:47;;;;;;;0.90;0.90;;;18.60;59.70;;;;;;5044731;28;43476;-61
2022/06/08 05:51:16;;;;;;;1.25;1.10;;;18.60;59.80;;;;;;5074256;28;43532;-62
2022/06/08 05:53:46;;;;;;;0.90;0.90;;;18.60;59.70;;;;;;5062018;28;43690;-62
2022/06/08 05:56:14;;;;;;;1.10;1.10;;;18.60;59.70;;;;;;5034849;28;43484;-62
2022/06/08 05:58:45;;;;;;;1.48;1.17;;;18.60;59.70;;;;;;5040255;28;43453;-62
2022/06/08 06:01:12;;;;;;;1.00;1.00;;;18.60;59.70;;;;;;5040167;28;44012;-62
2022/06/08 06:03:41;;;;;;;1.10;1.10;;;18.60;59.70;;;;;;5062218;28;43939;-61
2022/06/08 06:06:09;;;;;;;1.15;1.00;;;18.60;59.70;;;;;;5037666;28;43442;-61
2022/06/08 06:08:36;;;;;;;1.20;1.10;;;18.60;59.70;;;;;;5041573;28;43644;-61
2022/06/08 06:11:10;;;;;;;0.90;0.90;;;18.60;59.70;;;;;;5040559;28;44085;-61
2022/06/08 06:13:42;;;;;;;1.00;1.00;;;18.60;59.70;;;;;;5028072;28;43493;-61
2022/06/08 06:16:15;;;;;;;1.40;1.30;;;18.60;59.70;;;;;;5043970;28;43490;-61
2022/06/08 06:18:43;;;;;;;1.10;1.10;;;18.70;59.80;;;;;;5039594;28;43642;-62
2022/06/08 06:21:34;;;;;;;1.40;1.30;;;18.60;59.70;;;;;;5027425;28;45090;-61
2022/06/08 06:24:20;;;;;;;1.25;1.17;;;18.60;59.70;;;;;;5033629;28;43860;-61
2022/06/08 06:27:03;;;;;;;1.15;1.00;;;18.60;59.70;;;;;;5040910;28;43446;-61
2022/06/08 06:29:54;;;;;;;0.98;0.98;;;18.60;59.70;;;;;;5033074;28;43567;-62
2022/06/08 06:32:44;;;;;;;1.30;1.20;;;18.60;59.70;;;;;;5019455;28;44880;-62
2022/06/08 06:35:19;;;;;;;1.30;1.20;;;18.60;59.70;;;;;;5037142;28;43915;-62
2022/06/08 06:37:47;;;;;;;1.10;1.10;;;18.60;59.70;;;;;;5044572;28;43430;-63
2022/06/08 06:40:15;;;;;;;1.13;1.13;;;18.60;59.80;;;;;;5043329;28;43467;-62
2022/06/08 06:42:44;;;;;;;1.00;1.00;;;18.60;59.70;;;;;;5030167;28;44620;-62
2022/06/08 06:45:35;;;;;;;1.25;1.15;;;18.60;59.70;;;;;;5032674;28;44292;-62
2022/06/08 06:48:16;;;;;;;1.10;1.10;;;18.60;59.70;;;;;;5041760;28;43456;-62
2022/06/08 06:50:44;;;;;;;1.20;1.17;;;18.60;59.80;;;;;;5007825;28;43630;-62
2022/06/08 06:53:15;;;;;;;1.23;1.17;;;18.60;59.80;;;;;;5039130;28;44286;-62
2022/06/08 06:55:49;;;;;;;1.30;1.20;;;18.70;59.90;;;;;;5043258;28;43415;-61
2022/06/08 06:58:22;;;;;;;1.20;1.20;;;18.60;59.70;;;;;;5037181;28;43419;-61
2022/06/08 07:00:53;;;;;;;1.50;1.27;;;18.70;59.80;;;;;;5065240;28;43552;-62
2022/06/08 07:03:22;;;;;;;1.38;1.30;;;18.60;59.80;;;;;;5039405;28;43794;-62
2022/06/08 07:05:51;;;;;;;1.40;1.30;;;18.70;59.80;;;;;;5041238;28;43398;-61
2022/06/08 07:08:19;;;;;;;1.40;1.30;;;18.70;59.80;;;;;;5028277;28;43444;-61
2022/06/08 07:13:37;;;;;;;1.42;1.38;;;18.70;59.80;;;;;;5073960;28;44065;-61
2022/06/08 07:16:06;;;;;;;1.40;1.30;;;18.70;59.80;;;;;;5029391;28;43955;-62
2022/06/08 07:18:34;;;;;;;1.20;1.20;;;18.70;59.80;;;;;;5035791;28;43401;-62
2022/06/08 07:21:03;;;;;;;1.33;1.23;;;18.70;59.90;;;;;;5042692;28;43590;-63
2022/06/08 07:23:31;;;;;;;1.50;1.40;;;18.70;59.90;;;;;;5041636;28;44958;-62
2022/06/08 07:25:58;;;;;;;1.40;1.40;;;18.70;59.90;;;;;;5027503;28;43588;-61
2022/06/08 07:28:26;;;;;;;1.50;1.40;;;18.70;59.90;;;;;;5032612;28;43561;-61
2022/06/08 07:30:54;;;;;;;1.38;1.38;;;18.70;59.90;;;;;;5039777;28;43516;-62
2022/06/08 07:33:22;;;;;;;1.75;1.60;;;18.70;59.90;;;;;;5040755;28;45877;-62
2022/06/08 07:35:49;;;;;;;1.50;1.40;;;18.70;59.90;;;;;;5028610;28;43521;-62
2022/06/08 07:38:21;;;;;;;1.50;1.40;;;18.70;59.80;;;;;;5034671;28;43511;-62
2022/06/08 07:40:48;;;;;;;1.30;1.30;;;18.70;59.90;;;;;;5039185;28;43689;-62
2022/06/08 07:43:16;;;;;;;1.40;1.30;;;18.70;59.90;;;;;;5042079;28;44666;-61
2022/06/08 07:45:43;;;;;;;1.50;1.40;;;18.70;59.90;;;;;;5035304;28;44038;-62
2022/06/08 07:50:57;;;;;;;1.80;1.70;;;18.70;59.80;;;;;;5041497;28;43668;-61
2022/06/08 07:53:25;;;;;;;1.40;1.40;;;18.70;59.80;;;;;;5027082;28;43803;-61
2022/06/08 07:55:53;;;;;;;1.60;1.50;;;18.70;59.80;;;;;;5030333;28;43494;-62
2022/06/08 07:58:23;;;;;;;1.50;1.40;;;18.70;59.90;;;;;;5039747;28;43634;-61
2022/06/08 08:00:50;;;;;;;1.30;1.30;;;18.70;59.80;;;;;;5040910;28;43439;-62
2022/06/08 08:03:18;;;;;;;1.63;1.52;;;18.70;59.90;;;;;;5037614;28;44770;-62
2022/06/08 08:05:47;;;;;;;1.60;1.50;;;18.80;59.90;;;;;;5027426;28;43431;-62
2022/06/08 08:08:17;;;;;;;1.77;1.67;;;18.80;60.50;;;;;;5035692;28;43454;-62
2022/06/08 08:10:45;;;;;;;1.50;1.40;;;18.80;59.90;;;;;;5038596;28;43455;-62
2022/06/08 08:13:14;;;;;;;1.45;1.35;;;18.80;60.00;;;;;;5038346;28;43687;-61
2022/06/08 08:15:43;;;;;;;1.70;1.60;;;18.80;60.10;;;;;;5032424;28;43955;-61
2022/06/08 08:18:12;;;;;;;2.53;1.90;;;18.80;60.20;;;;;;5035810;28;43526;-61
2022/06/08 08:20:40;;;;;;;2.70;2.50;;;18.80;60.20;;;;;;5039643;28;43542;-61
2022/06/08 08:23:08;;;;;;;2.20;2.10;;;18.90;60.40;;;;;;5034361;28;43577;-62
2022/06/08 08:25:35;;;;;;;2.42;2.20;;;18.90;60.20;;;;;;5062579;28;43478;-62
2022/06/08 08:28:03;;;;;;;2.22;2.13;;;18.90;59.90;;;;;;5037309;28;43491;-62
2022/06/08 08:30:32;;;;;;;2.63;2.20;;;19.00;60.00;;;;;;5040552;28;43450;-62
2022/06/08 08:32:59;;;;;;;2.30;2.20;;;19.00;60.00;;;;;;5028833;28;44995;-62
2022/06/08 08:35:28;;;;;;;2.60;2.40;;;19.00;60.10;;;;;;5034973;28;43872;-62
2022/06/08 08:37:57;;;;;;;2.30;2.10;;;19.00;60.10;;;;;;5042153;28;43415;-62
2022/06/08 08:40:39;;;;;;;3.35;2.40;;;19.10;60.10;;;;;;5042757;28;43547;-62
2022/06/08 08:43:09;;;;;;;2.40;2.20;;;19.10;59.90;;;;;;5041590;28;44020;-62
2022/06/08 08:46:18;;;;;;;3.40;2.60;;;19.10;60.00;;;;;;5040158;28;43700;-62
2022/06/08 08:48:54;;;;;;;3.00;2.53;;;19.10;60.00;;;;;;5037085;28;43543;-62
2022/06/08 08:51:28;;;;;;;2.70;2.50;;;19.10;60.00;;;;;;5038927;28;43384;-61
2022/06/08 08:54:13;;;;;;;2.35;2.25;;;19.10;60.00;;;;;;5041235;28;44270;-62
2022/06/08 08:56:42;;;;;;;2.40;2.20;;;19.10;60.00;;;;;;5025811;28;43849;-62
2022/06/08 08:59:16;;;;;;;2.10;2.00;;;19.10;60.20;;;;;;5031529;28;43508;-62
2022/06/08 09:01:48;;;;;;;2.47;2.28;;;19.20;60.10;;;;;;5039182;28;43517;-62
2022/06/08 09:04:23;;;;;;;2.80;2.58;;;19.20;60.30;;;;;;5045394;28;44992;-61
2022/06/08 09:06:51;;;;;;;2.38;2.17;;;19.20;60.30;;;;;;5036922;28;43534;-62
2022/06/08 09:09:23;;;;;;;2.40;2.28;;;19.30;60.30;;;;;;5035860;28;43427;-62
2022/06/08 09:11:51;;;;;;;2.67;2.30;;;19.30;60.20;;;;;;5038637;28;43476;-62
2022/06/08 09:14:59;;;;;;;2.20;2.00;;;19.40;60.00;;;;;;5027000;28;43750;-62
2022/06/08 09:17:39;;;;;;;2.30;2.13;;;19.40;59.80;;;;;;5042043;28;43513;-62
2022/06/08 09:20:31;;;;;;;2.22;2.10;;;19.40;59.80;;;;;;5066551;28;43477;-61
2022/06/08 09:23:18;;;;;;;3.60;2.35;;;19.50;59.90;;;;;;5040533;28;43971;-61
2022/06/08 09:26:00;;;;;;;2.20;1.90;;;19.60;59.80;;;;;;5029503;28;43845;-62
2022/06/08 09:28:31;;;;;;;2.30;2.10;;;19.60;59.60;;;;;;5034188;28;43699;-61
2022/06/08 09:30:59;;;;;;;2.13;2.03;;;19.70;59.60;;;;;;5039645;28;43422;-62
2022/06/08 09:33:35;;;;;;;2.20;2.00;;;19.70;59.60;;;;;;5042986;28;43518;-62
2022/06/08 09:36:21;;;;;;;2.25;2.00;;;19.80;59.80;;;;;;5028481;28;44003;-61
2022/06/08 09:38:48;;;;;;;1.95;1.77;;;19.80;59.50;;;;;;5038813;28;43934;-61
2022/06/08 09:41:36;;;;;;;2.20;2.00;;;19.90;59.50;;;;;;5042055;28;43569;-62
2022/06/08 09:44:21;;;;;;;2.03;1.92;;;20.00;59.40;;;;;;5042257;28;43447;-61
2022/06/08 09:53:39;;;;;;;1.80;1.70;;;20.10;59.80;;;;;;5042153;28;43475;-62
2022/06/08 09:56:41;;;;;;;2.08;1.88;;;20.10;59.20;;;;;;5020934;28;43520;-62
2022/06/08 09:59:35;;;;;;;2.00;1.80;;;20.20;59.20;;;;;;5008733;28;44652;-61
2022/06/08 10:02:39;;;;;;;1.60;1.50;;;20.20;59.30;;;;;;5041322;28;43473;-61
2022/06/08 10:05:39;;;;;;;1.65;1.55;;;20.20;59.30;;;;;;5042250;28;43479;-62
2022/06/08 10:08:19;;;;;;;1.60;1.50;;;20.30;59.30;;;;;;5042175;28;43629;-62
2022/06/08 10:10:53;;;;;;;2.03;1.60;;;20.30;59.30;;;;;;5037263;28;43811;-61
2022/06/08 10:13:28;;;;;;;2.10;1.67;;;20.30;59.20;;;;;;5042642;28;43494;-61
2022/06/08 10:16:14;;;;;;;1.70;1.60;;;20.30;59.10;;;;;;5041836;28;43540;-62
2022/06/08 10:19:01;;;;;;;1.88;1.58;;;20.40;59.10;;;;;;5040652;28;43546;-61
2022/06/08 10:21:38;;;;;;;2.05;1.60;;;20.40;59.00;;;;;;5041201;28;44956;-62
2022/06/08 10:24:30;;;;;;;1.67;1.58;;;20.40;59.00;;;;;;5043364;28;43562;-61
2022/06/08 10:27:04;;;;;;;1.92;1.30;;;20.40;58.90;;;;;;5040869;28;43473;-61
2022/06/08 10:29:43;;;;;;;1.50;1.40;;;20.50;59.00;;;;;;5042140;28;43477;-61
2022/06/08 10:32:21;;;;;;;1.58;1.48;;;20.50;59.00;;;;;;5041615;28;44276;-61
2022/06/08 10:34:54;;;;;;;1.40;1.30;;;20.50;58.90;;;;;;5042299;28;43510;-61
2022/06/08 10:37:36;;;;;;;1.98;1.40;;;20.50;58.90;;;;;;5041328;28;43489;-61
2022/06/08 10:40:19;;;;;;;1.50;1.42;;;20.50;59.00;;;;;;5025322;28;44033;-62
2022/06/08 10:42:49;;;;;;;1.35;1.27;;;20.50;58.90;;;;;;5074367;28;43992;-61
2022/06/08 10:45:23;;;;;;;1.52;1.42;;;20.50;58.90;;;;;;5041678;28;43599;-61
2022/06/08 10:47:59;;;;;;;1.33;1.25;;;20.50;58.90;;;;;;5039668;28;43551;-61
2022/06/08 10:50:35;;;;;;;1.20;1.20;;;20.50;58.80;;;;;;5065487;28;43597;-62
2022/06/08 10:56:27;;;;;;;1.52;1.42;;;20.50;58.90;;;;;;5040267;28;43441;-62
2022/06/08 10:59:04;;;;;;;1.92;1.30;;;20.50;58.90;;;;;;5044530;28;43562;-62
2022/06/08 11:01:49;;;;;;;1.60;1.50;;;20.50;59.00;;;;;;5037264;28;43499;-62
2022/06/08 11:04:32;;;;;;;1.30;1.30;;;20.50;59.10;;;;;;5039719;28;43740;-62
2022/06/08 11:07:07;;;;;;;1.48;1.38;;;20.50;58.90;;;;;;5033414;28;43513;-62
2022/06/08 11:09:37;;;;;;;1.27;1.25;;;20.50;59.00;;;;;;5050987;28;43498;-62
2022/06/08 11:12:05;;;;;;;1.23;1.13;;;20.50;59.00;;;;;;5033353;28;43511;-62
2022/06/08 11:14:43;;;;;;;1.33;1.23;;;20.60;59.00;;;;;;5042854;28;43856;-62
2022/06/08 11:17:20;;;;;;;1.40;1.30;;;20.60;59.00;;;;;;5040284;28;43418;-61
2022/06/08 11:19:49;;;;;;;1.48;1.38;;;20.60;59.00;;;;;;5033282;28;43421;-62
2022/06/08 11:22:27;;;;;;;1.73;1.30;;;20.60;59.00;;;;;;5030805;28;43555;-62
2022/06/08 11:24:58;;;;;;;1.38;1.27;;;20.60;59.00;;;;;;5040353;28;43997;-62
2022/06/08 11:27:35;;;;;;;1.33;1.30;;;20.60;58.90;;;;;;5042080;28;43993;-62
2022/06/08 11:30:23;;;;;;;1.25;1.23;;;20.60;58.90;;;;;;5028852;28;43492;-62
2022/06/08 11:32:51;;;;;;;1.55;1.00;;;20.60;59.00;;;;;;5035970;28;43905;-61
2022/06/08 11:35:56;;;;;;;1.10;1.10;;;20.50;59.00;;;;;;5040824;28;44981;-62
2022/06/08 11:38:36;;;;;;;1.15;1.05;;;20.60;58.90;;;;;;5033993;28;43464;-62
2022/06/08 11:41:30;;;;;;;1.35;1.25;;;20.60;59.00;;;;;;5033076;28;43511;-62
2022/06/08 11:44:03;;;;;;;1.45;1.05;;;20.60;59.10;;;;;;5040734;28;43521;-61
2022/06/08 11:46:38;;;;;;;1.42;1.30;;;20.50;59.10;;;;;;5031345;28;45033;-61
2022/06/08 11:49:28;;;;;;;1.38;1.10;;;20.50;59.10;;;;;;5031034;28;43448;-62
2022/06/08 11:51:56;;;;;;;1.10;1.10;;;20.50;59.20;;;;;;5033613;28;43508;-61
2022/06/08 11:54:31;;;;;;;1.10;1.10;;;20.50;59.30;;;;;;5071934;28;43493;-62
2022/06/08 11:57:18;;;;;;;1.23;1.17;;;20.60;59.40;;;;;;5041424;28;44228;-61
2022/06/08 11:59:47;;;;;;;1.02;1.02;;;20.60;59.40;;;;;;5041155;28;43538;-61
2022/06/08 12:02:26;;;;;;;1.20;1.20;;;20.50;59.50;;;;;;5039511;28;43592;-62
2022/06/08 12:04:57;;;;;;;1.75;1.10;;;20.50;59.50;;;;;;5039257;28;43586;-62
2022/06/08 12:07:37;;;;;;;1.55;1.10;;;20.50;59.60;;;;;;5037852;28;44277;-62
2022/06/08 12:10:06;;;;;;;1.95;1.25;;;20.50;59.60;;;;;;5040680;28;43558;-62
2022/06/08 12:12:34;;;;;;;1.55;1.45;;;20.50;59.90;;;;;;5040622;28;43486;-62
2022/06/08 12:15:38;;;;;;;1.08;1.08;;;20.60;59.90;;;;;;5039155;28;43578;-63
2022/06/08 12:18:23;;;;;;;1.63;1.40;;;20.50;59.70;;;;;;5040174;28;44265;-62
2022/06/08 12:21:18;;;;;;;1.30;1.20;;;20.60;59.80;;;;;;5038630;28;43544;-62
2022/06/08 12:23:58;;;;;;;1.35;1.25;;;20.50;59.80;;;;;;5035684;28;43628;-62
2022/06/08 12:26:35;;;;;;;1.00;1.00;;;20.60;59.70;;;;;;5033792;28;43642;-62
2022/06/08 12:29:52;;;;;;;1.25;1.15;;;20.60;59.90;;;;;;5041490;28;44031;-62
2022/06/08 12:32:27;;;;;;;1.20;1.10;;;20.60;60.50;;;;;;5039461;28;43431;-62
2022/06/08 12:35:07;;;;;;;1.33;1.23;;;20.50;59.80;;;;;;5041853;28;43470;-62
2022/06/08 12:37:37;;;;;;;1.20;1.20;;;20.60;59.90;;;;;;5040478;28;43510;-62
2022/06/08 12:40:16;;;;;;;1.30;1.20;;;20.50;59.60;;;;;;5040346;28;44019;-62
2022/06/08 12:42:50;;;;;;;1.17;1.15;;;20.60;59.80;;;;;;5038420;28;43447;-62
2022/06/08 12:46:02;;;;;;;2.40;1.20;;;20.50;59.70;;;;;;5037262;28;43487;-63
2022/06/08 12:48:56;;;;;;;1.33;1.17;;;20.50;59.70;;;;;;5041299;28;43640;-62
2022/06/08 12:51:29;;;;;;;1.20;1.10;;;20.50;59.70;;;;;;5034719;28;44088;-62
2022/06/08 12:53:57;;;;;;;1.17;1.10;;;20.50;59.90;;;;;;5040800;28;44040;-62
2022/06/08 12:56:26;;;;;;;1.13;1.13;;;20.50;59.90;;;;;;5039578;28;43915;-62
2022/06/08 12:58:54;;;;;;;1.30;1.20;;;20.50;60.10;;;;;;5041657;28;43636;-62
2022/06/08 13:01:24;;;;;;;1.40;1.30;;;20.50;60.00;;;;;;5040683;28;44947;-62
2022/06/08 13:03:52;;;;;;;1.95;1.10;;;20.50;59.80;;;;;;5039965;28;43439;-62
2022/06/08 13:06:20;;;;;;;1.30;1.20;;;20.50;60.00;;;;;;5040931;28;43453;-62
2022/06/08 13:08:49;;;;;;;1.30;1.20;;;20.50;59.90;;;;;;5039717;28;43593;-63
2022/06/08 13:11:23;;;;;;;1.10;1.10;;;20.60;60.10;;;;;;5038002;28;44065;-61
2022/06/08 13:13:55;;;;;;;1.17;1.08;;;20.60;59.90;;;;;;5039268;28;44004;-61
2022/06/08 13:16:28;;;;;;;0.98;0.98;;;20.60;59.90;;;;;;5037809;28;43566;-61
2022/06/08 13:18:58;;;;;;;1.25;1.15;;;20.60;59.80;;;;;;5041314;28;44005;-61
2022/06/08 13:21:27;;;;;;;1.13;1.13;;;20.60;59.70;;;;;;5042091;28;45027;-61
2022/06/08 13:23:54;;;;;;;1.08;1.05;;;20.60;59.90;;;;;;5044732;28;43523;-61
2022/06/08 13:26:27;;;;;;;1.25;1.15;;;20.60;59.80;;;;;;5043478;28;43454;-62
2022/06/08 13:28:58;;;;;;;1.85;1.25;;;20.60;59.90;;;;;;5042817;28;43586;-61
2022/06/08 13:31:26;;;;;;;1.55;1.45;;;20.60;60.10;;;;;;5040042;28;44029;-62
2022/06/08 13:33:56;;;;;;;2.05;1.00;;;20.60;60.00;;;;;;5044361;28;43892;-62
2022/06/08 13:36:27;;;;;;;1.73;1.10;;;20.60;59.90;;;;;;5041858;28;43487;-61
2022/06/08 13:39:10;;;;;;;1.20;1.10;;;20.60;59.90;;;;;;5041599;28;43499;-61
2022/06/08 13:41:42;;;;;;;1.00;1.00;;;20.60;59.90;;;;;;5042261;28;43799;-61
2022/06/08 13:44:29;;;;;;;1.10;1.10;;;20.60;60.10;;;;;;5039336;28;43499;-62